sensor_id;sensor_type;location;lat;lon;timestamp;pressure;altitude;pressure_sealevel;temperature;humidity
76260;BME280;65076;52.362;6.588;2023-07-30T00:00:21;100824.41;;;18.30;66.69
76260;BME280;65076;52.362;6.588;2023-07-30T00:02:50;100839.00;;;18.41;67.00
76260;BME280;65076;52.362;6.588;2023-07-30T00:05:18;100837.63;;;18.58;66.24
76260;BME280;65076;52.362;6.588;2023-07-30T00:07:46;100845.47;;;18.85;65.29
76260;BME280;65076;52.362;6.588;2023-07-30T00:10:14;100829.28;;;18.59;65.91
76260;BME280;65076;52.362;6.588;2023-07-30T00:12:43;100833.06;;;18.01;67.22
76260;BME280;65076;52.362;6.588;2023-07-30T00:15:11;100839.44;;;18.02;67.68
76260;BME280;65076;52.362;6.588;2023-07-30T00:17:39;100834.22;;;18.10;66.96
76260;BME280;65076;52.362;6.588;2023-07-30T00:20:09;100830.56;;;18.55;65.09
76260;BME280;65076;52.362;6.588;2023-07-30T00:22:36;100830.47;;;18.00;66.35
76260;BME280;65076;52.362;6.588;2023-07-30T00:25:05;100833.41;;;17.51;68.51
76260;BME280;65076;52.362;6.588;2023-07-30T00:27:34;100836.53;;;17.92;67.27
76260;BME280;65076;52.362;6.588;2023-07-30T00:30:03;100830.09;;;17.58;68.37
76260;BME280;65076;52.362;6.588;2023-07-30T00:32:31;100833.88;;;17.45;69.08
76260;BME280;65076;52.362;6.588;2023-07-30T00:34:59;100837.56;;;18.02;67.46
76260;BME280;65076;52.362;6.588;2023-07-30T00:37:29;100832.94;;;17.57;67.95
76260;BME280;65076;52.362;6.588;2023-07-30T00:39:57;100826.69;;;17.78;67.73
76260;BME280;65076;52.362;6.588;2023-07-30T00:42:25;100829.13;;;17.70;68.74
76260;BME280;65076;52.362;6.588;2023-07-30T00:44:53;100833.03;;;17.20;70.26
76260;BME280;65076;52.362;6.588;2023-07-30T00:47:21;100837.72;;;17.18;69.98
76260;BME280;65076;52.362;6.588;2023-07-30T00:49:50;100836.84;;;16.94;70.42
76260;BME280;65076;52.362;6.588;2023-07-30T00:52:19;100834.91;;;17.07;70.71
76260;BME280;65076;52.362;6.588;2023-07-30T00:54:51;100837.25;;;17.01;71.10
76260;BME280;65076;52.362;6.588;2023-07-30T00:57:21;100841.09;;;16.98;71.31
76260;BME280;65076;52.362;6.588;2023-07-30T00:59:50;100834.84;;;17.44;69.41
76260;BME280;65076;52.362;6.588;2023-07-30T01:02:19;100846.28;;;17.38;69.54
76260;BME280;65076;52.362;6.588;2023-07-30T01:04:48;100841.56;;;17.16;70.52
76260;BME280;65076;52.362;6.588;2023-07-30T01:07:18;100855.00;;;16.82;72.17
76260;BME280;65076;52.362;6.588;2023-07-30T01:09:46;100845.47;;;17.01;72.00
76260;BME280;65076;52.362;6.588;2023-07-30T01:12:15;100854.84;;;16.60;73.34
76260;BME280;65076;52.362;6.588;2023-07-30T01:14:44;100853.94;;;16.72;73.04
76260;BME280;65076;52.362;6.588;2023-07-30T01:17:13;100856.03;;;16.69;73.49
76260;BME280;65076;52.362;6.588;2023-07-30T01:19:41;100853.00;;;16.97;72.32
76260;BME280;65076;52.362;6.588;2023-07-30T01:22:11;100852.00;;;16.62;73.57
76260;BME280;65076;52.362;6.588;2023-07-30T01:24:39;100843.81;;;16.98;72.31
76260;BME280;65076;52.362;6.588;2023-07-30T01:27:07;100850.31;;;16.84;72.73
76260;BME280;65076;52.362;6.588;2023-07-30T01:29:47;100848.72;;;17.06;72.49
76260;BME280;65076;52.362;6.588;2023-07-30T01:32:27;100854.06;;;16.58;73.85
76260;BME280;65076;52.362;6.588;2023-07-30T01:34:57;100850.44;;;16.70;74.87
76260;BME280;65076;52.362;6.588;2023-07-30T01:37:30;100853.19;;;16.70;74.08
76260;BME280;65076;52.362;6.588;2023-07-30T01:39:58;100848.06;;;16.66;74.03
76260;BME280;65076;52.362;6.588;2023-07-30T01:42:28;100847.97;;;16.91;73.88
76260;BME280;65076;52.362;6.588;2023-07-30T01:44:56;100856.31;;;16.89;73.36
76260;BME280;65076;52.362;6.588;2023-07-30T01:47:25;100857.03;;;17.04;73.14
76260;BME280;65076;52.362;6.588;2023-07-30T01:49:53;100861.63;;;16.67;74.47
76260;BME280;65076;52.362;6.588;2023-07-30T01:52:21;100856.53;;;16.86;74.17
76260;BME280;65076;52.362;6.588;2023-07-30T01:54:50;100858.25;;;17.00;73.16
76260;BME280;65076;52.362;6.588;2023-07-30T01:57:18;100860.91;;;16.89;73.73
76260;BME280;65076;52.362;6.588;2023-07-30T01:59:46;100863.22;;;16.82;73.71
76260;BME280;65076;52.362;6.588;2023-07-30T02:02:14;100867.16;;;16.78;74.50
76260;BME280;65076;52.362;6.588;2023-07-30T02:04:42;100857.59;;;16.97;73.72
76260;BME280;65076;52.362;6.588;2023-07-30T02:07:09;100861.88;;;17.01;73.37
76260;BME280;65076;52.362;6.588;2023-07-30T02:09:37;100856.16;;;17.04;73.37
76260;BME280;65076;52.362;6.588;2023-07-30T02:12:08;100856.50;;;16.99;73.33
76260;BME280;65076;52.362;6.588;2023-07-30T02:14:36;100861.34;;;16.83;73.44
76260;BME280;65076;52.362;6.588;2023-07-30T02:17:04;100859.59;;;16.82;74.00
76260;BME280;65076;52.362;6.588;2023-07-30T02:19:32;100855.19;;;16.92;73.83
76260;BME280;65076;52.362;6.588;2023-07-30T02:22:00;100870.69;;;16.42;75.88
76260;BME280;65076;52.362;6.588;2023-07-30T02:24:28;100860.59;;;16.81;74.64
76260;BME280;65076;52.362;6.588;2023-07-30T02:26:56;100867.38;;;16.50;75.82
76260;BME280;65076;52.362;6.588;2023-07-30T02:29:25;100867.47;;;16.86;74.26
76260;BME280;65076;52.362;6.588;2023-07-30T02:31:53;100860.63;;;16.68;74.51
76260;BME280;65076;52.362;6.588;2023-07-30T02:34:22;100855.91;;;16.70;74.23
76260;BME280;65076;52.362;6.588;2023-07-30T02:36:49;100864.19;;;16.81;73.77
76260;BME280;65076;52.362;6.588;2023-07-30T02:39:17;100861.66;;;16.91;73.81
76260;BME280;65076;52.362;6.588;2023-07-30T02:41:46;100864.00;;;16.84;73.76
76260;BME280;65076;52.362;6.588;2023-07-30T02:44:14;100861.81;;;16.51;74.70
76260;BME280;65076;52.362;6.588;2023-07-30T02:46:44;100866.28;;;16.78;74.11
76260;BME280;65076;52.362;6.588;2023-07-30T02:49:12;100861.59;;;16.54;74.79
76260;BME280;65076;52.362;6.588;2023-07-30T02:51:39;100859.19;;;16.50;74.94
76260;BME280;65076;52.362;6.588;2023-07-30T02:54:09;100856.50;;;16.63;75.19
76260;BME280;65076;52.362;6.588;2023-07-30T02:56:37;100859.06;;;16.89;73.92
76260;BME280;65076;52.362;6.588;2023-07-30T02:59:05;100859.78;;;16.91;73.54
76260;BME280;65076;52.362;6.588;2023-07-30T03:01:33;100852.97;;;16.73;73.90
76260;BME280;65076;52.362;6.588;2023-07-30T03:04:04;100860.94;;;16.38;74.66
76260;BME280;65076;52.362;6.588;2023-07-30T03:06:32;100864.88;;;16.60;74.59
76260;BME280;65076;52.362;6.588;2023-07-30T03:09:00;100862.41;;;16.93;73.47
76260;BME280;65076;52.362;6.588;2023-07-30T03:11:29;100866.66;;;16.61;73.85
76260;BME280;65076;52.362;6.588;2023-07-30T03:13:57;100859.88;;;16.66;74.24
76260;BME280;65076;52.362;6.588;2023-07-30T03:16:25;100862.50;;;16.68;74.08
76260;BME280;65076;52.362;6.588;2023-07-30T03:18:53;100874.00;;;16.97;72.88
76260;BME280;65076;52.362;6.588;2023-07-30T03:21:22;100874.69;;;16.75;73.65
76260;BME280;65076;52.362;6.588;2023-07-30T03:23:50;100867.44;;;16.99;72.99
76260;BME280;65076;52.362;6.588;2023-07-30T03:26:18;100864.28;;;16.92;72.54
76260;BME280;65076;52.362;6.588;2023-07-30T03:28:46;100863.03;;;17.09;72.62
76260;BME280;65076;52.362;6.588;2023-07-30T03:31:14;100866.66;;;16.97;72.89
76260;BME280;65076;52.362;6.588;2023-07-30T03:33:42;100861.59;;;16.80;73.29
76260;BME280;65076;52.362;6.588;2023-07-30T03:36:12;100856.78;;;16.71;74.56
76260;BME280;65076;52.362;6.588;2023-07-30T03:38:43;100863.31;;;16.81;73.92
76260;BME280;65076;52.362;6.588;2023-07-30T03:41:11;100867.88;;;16.93;73.51
76260;BME280;65076;52.362;6.588;2023-07-30T03:43:39;100852.91;;;16.99;73.56
76260;BME280;65076;52.362;6.588;2023-07-30T03:46:06;100857.91;;;16.68;74.15
76260;BME280;65076;52.362;6.588;2023-07-30T03:48:34;100862.97;;;16.85;74.63
76260;BME280;65076;52.362;6.588;2023-07-30T03:51:04;100858.38;;;16.86;73.91
76260;BME280;65076;52.362;6.588;2023-07-30T03:53:33;100866.06;;;16.81;74.46
76260;BME280;65076;52.362;6.588;2023-07-30T03:56:03;100862.16;;;16.72;74.53
76260;BME280;65076;52.362;6.588;2023-07-30T03:58:31;100854.97;;;16.59;75.49
76260;BME280;65076;52.362;6.588;2023-07-30T04:00:59;100860.09;;;16.63;75.29
76260;BME280;65076;52.362;6.588;2023-07-30T04:03:27;100855.72;;;16.97;73.75
76260;BME280;65076;52.362;6.588;2023-07-30T04:05:55;100867.06;;;16.67;74.93
76260;BME280;65076;52.362;6.588;2023-07-30T04:08:23;100857.56;;;16.73;74.54
76260;BME280;65076;52.362;6.588;2023-07-30T04:10:51;100874.28;;;16.68;75.84
76260;BME280;65076;52.362;6.588;2023-07-30T04:13:21;100870.00;;;16.89;74.96
76260;BME280;65076;52.362;6.588;2023-07-30T04:15:49;100877.75;;;16.83;74.94
76260;BME280;65076;52.362;6.588;2023-07-30T04:18:17;100870.88;;;16.90;75.12
76260;BME280;65076;52.362;6.588;2023-07-30T04:20:46;100876.72;;;16.97;74.40
76260;BME280;65076;52.362;6.588;2023-07-30T04:23:14;100873.78;;;17.00;74.03
76260;BME280;65076;52.362;6.588;2023-07-30T04:25:42;100872.53;;;17.16;73.88
76260;BME280;65076;52.362;6.588;2023-07-30T04:28:10;100868.13;;;16.90;74.63
76260;BME280;65076;52.362;6.588;2023-07-30T04:30:40;100873.25;;;17.18;74.85
76260;BME280;65076;52.362;6.588;2023-07-30T04:33:08;100869.31;;;17.22;74.40
76260;BME280;65076;52.362;6.588;2023-07-30T04:35:36;100866.75;;;17.08;75.26
76260;BME280;65076;52.362;6.588;2023-07-30T04:38:04;100874.03;;;17.20;74.28
76260;BME280;65076;52.362;6.588;2023-07-30T04:40:32;100882.88;;;17.00;74.83
76260;BME280;65076;52.362;6.588;2023-07-30T04:43:00;100882.25;;;17.20;74.81
76260;BME280;65076;52.362;6.588;2023-07-30T04:45:27;100886.41;;;17.13;74.57
76260;BME280;65076;52.362;6.588;2023-07-30T04:47:57;100880.84;;;16.78;76.44
76260;BME280;65076;52.362;6.588;2023-07-30T04:50:25;100890.97;;;16.89;76.23
76260;BME280;65076;52.362;6.588;2023-07-30T04:52:53;100893.19;;;16.84;77.09
76260;BME280;65076;52.362;6.588;2023-07-30T04:55:20;100893.03;;;16.85;77.85
76260;BME280;65076;52.362;6.588;2023-07-30T04:57:48;100885.59;;;17.24;75.73
76260;BME280;65076;52.362;6.588;2023-07-30T05:00:17;100895.19;;;17.42;75.95
76260;BME280;65076;52.362;6.588;2023-07-30T05:02:45;100890.00;;;17.74;73.89
76260;BME280;65076;52.362;6.588;2023-07-30T05:05:14;100894.97;;;17.69;73.96
76260;BME280;65076;52.362;6.588;2023-07-30T05:07:42;100891.84;;;17.26;75.18
76260;BME280;65076;52.362;6.588;2023-07-30T05:10:10;100891.97;;;17.72;74.38
76260;BME280;65076;52.362;6.588;2023-07-30T05:12:38;100899.00;;;17.87;74.27
76260;BME280;65076;52.362;6.588;2023-07-30T05:15:07;100899.44;;;18.05;73.24
76260;BME280;65076;52.362;6.588;2023-07-30T05:17:35;100908.88;;;17.90;73.71
76260;BME280;65076;52.362;6.588;2023-07-30T05:20:04;100905.06;;;17.79;74.17
76260;BME280;65076;52.362;6.588;2023-07-30T05:22:34;100905.34;;;17.88;74.72
76260;BME280;65076;52.362;6.588;2023-07-30T05:25:02;100899.88;;;17.88;74.28
76260;BME280;65076;52.362;6.588;2023-07-30T05:27:30;100908.97;;;17.64;74.96
76260;BME280;65076;52.362;6.588;2023-07-30T05:29:58;100899.53;;;17.92;74.69
76260;BME280;65076;52.362;6.588;2023-07-30T05:32:26;100903.28;;;18.02;74.64
76260;BME280;65076;52.362;6.588;2023-07-30T05:34:54;100900.09;;;18.19;73.63
76260;BME280;65076;52.362;6.588;2023-07-30T05:37:22;100897.88;;;18.36;73.40
76260;BME280;65076;52.362;6.588;2023-07-30T05:39:52;100898.09;;;18.21;73.87
76260;BME280;65076;52.362;6.588;2023-07-30T05:42:20;100898.00;;;18.34;73.46
76260;BME280;65076;52.362;6.588;2023-07-30T05:44:48;100894.66;;;18.42;73.54
76260;BME280;65076;52.362;6.588;2023-07-30T05:47:16;100906.88;;;18.49;74.16
76260;BME280;65076;52.362;6.588;2023-07-30T05:49:43;100905.03;;;18.60;73.89
76260;BME280;65076;52.362;6.588;2023-07-30T05:52:11;100911.56;;;18.25;74.46
76260;BME280;65076;52.362;6.588;2023-07-30T05:54:39;100904.63;;;18.32;74.60
76260;BME280;65076;52.362;6.588;2023-07-30T05:57:08;100915.88;;;18.62;74.11
76260;BME280;65076;52.362;6.588;2023-07-30T05:59:36;100913.75;;;18.08;75.17
76260;BME280;65076;52.362;6.588;2023-07-30T06:02:05;100921.56;;;18.02;76.59
76260;BME280;65076;52.362;6.588;2023-07-30T06:04:33;100911.22;;;18.40;74.99
76260;BME280;65076;52.362;6.588;2023-07-30T06:07:02;100920.41;;;18.28;75.41
76260;BME280;65076;52.362;6.588;2023-07-30T06:09:31;100921.00;;;18.09;75.84
76260;BME280;65076;52.362;6.588;2023-07-30T06:12:00;100909.34;;;18.30;76.39
76260;BME280;65076;52.362;6.588;2023-07-30T06:14:29;100908.34;;;18.31;75.12
76260;BME280;65076;52.362;6.588;2023-07-30T06:16:57;100922.41;;;18.26;76.17
76260;BME280;65076;52.362;6.588;2023-07-30T06:19:25;100918.13;;;18.22;76.42
76260;BME280;65076;52.362;6.588;2023-07-30T06:21:53;100918.88;;;18.13;76.99
76260;BME280;65076;52.362;6.588;2023-07-30T06:24:22;100922.09;;;18.07;77.71
76260;BME280;65076;52.362;6.588;2023-07-30T06:26:50;100913.38;;;18.59;75.90
76260;BME280;65076;52.362;6.588;2023-07-30T06:29:18;100914.16;;;18.15;77.01
76260;BME280;65076;52.362;6.588;2023-07-30T06:31:47;100914.91;;;18.63;75.23
76260;BME280;65076;52.362;6.588;2023-07-30T06:34:15;100912.41;;;18.71;75.04
76260;BME280;65076;52.362;6.588;2023-07-30T06:36:43;100917.50;;;18.87;74.70
76260;BME280;65076;52.362;6.588;2023-07-30T06:39:11;100913.38;;;19.15;74.14
76260;BME280;65076;52.362;6.588;2023-07-30T06:41:39;100913.38;;;19.26;72.83
76260;BME280;65076;52.362;6.588;2023-07-30T06:44:07;100914.19;;;19.49;71.69
76260;BME280;65076;52.362;6.588;2023-07-30T06:46:36;100913.47;;;19.78;71.21
76260;BME280;65076;52.362;6.588;2023-07-30T06:49:06;100914.19;;;20.54;68.90
76260;BME280;65076;52.362;6.588;2023-07-30T06:51:34;100909.84;;;19.46;71.10
76260;BME280;65076;52.362;6.588;2023-07-30T06:54:03;100917.69;;;19.39;71.73
76260;BME280;65076;52.362;6.588;2023-07-30T06:56:31;100919.19;;;19.55;70.56
76260;BME280;65076;52.362;6.588;2023-07-30T06:58:59;100914.94;;;19.62;71.90
76260;BME280;65076;52.362;6.588;2023-07-30T07:01:40;100920.56;;;19.49;72.34
76260;BME280;65076;52.362;6.588;2023-07-30T07:04:10;100921.69;;;19.78;71.44
76260;BME280;65076;52.362;6.588;2023-07-30T07:06:38;100924.16;;;19.61;71.80
76260;BME280;65076;52.362;6.588;2023-07-30T07:09:06;100918.91;;;19.58;71.46
76260;BME280;65076;52.362;6.588;2023-07-30T07:11:34;100926.13;;;19.70;71.10
76260;BME280;65076;52.362;6.588;2023-07-30T07:14:02;100926.94;;;20.13;69.66
76260;BME280;65076;52.362;6.588;2023-07-30T07:16:30;100916.19;;;20.10;69.75
76260;BME280;65076;52.362;6.588;2023-07-30T07:19:00;100920.63;;;20.22;68.20
76260;BME280;65076;52.362;6.588;2023-07-30T07:21:30;100923.66;;;20.19;69.43
76260;BME280;65076;52.362;6.588;2023-07-30T07:23:58;100922.63;;;20.83;67.63
76260;BME280;65076;52.362;6.588;2023-07-30T07:26:26;100924.94;;;20.36;68.12
76260;BME280;65076;52.362;6.588;2023-07-30T07:28:55;100931.66;;;20.43;68.25
76260;BME280;65076;52.362;6.588;2023-07-30T07:31:23;100932.41;;;20.13;68.65
76260;BME280;65076;52.362;6.588;2023-07-30T07:33:51;100938.63;;;19.95;69.39
76260;BME280;65076;52.362;6.588;2023-07-30T07:36:19;100943.31;;;19.83;69.90
76260;BME280;65076;52.362;6.588;2023-07-30T07:38:48;100936.72;;;19.63;70.28
76260;BME280;65076;52.362;6.588;2023-07-30T07:41:17;100941.84;;;20.00;69.08
76260;BME280;65076;52.362;6.588;2023-07-30T07:43:46;100945.69;;;19.76;69.28
76260;BME280;65076;52.362;6.588;2023-07-30T07:46:14;100947.16;;;20.12;68.28
76260;BME280;65076;52.362;6.588;2023-07-30T07:48:43;100956.69;;;20.08;68.11
76260;BME280;65076;52.362;6.588;2023-07-30T07:51:11;100945.94;;;20.05;68.36
76260;BME280;65076;52.362;6.588;2023-07-30T07:53:39;100951.13;;;20.19;67.82
76260;BME280;65076;52.362;6.588;2023-07-30T07:56:09;100950.69;;;20.35;67.37
76260;BME280;65076;52.362;6.588;2023-07-30T07:58:37;100946.34;;;20.84;66.10
76260;BME280;65076;52.362;6.588;2023-07-30T08:01:13;100941.66;;;21.05;65.25
76260;BME280;65076;52.362;6.588;2023-07-30T08:03:41;100940.00;;;20.62;66.28
76260;BME280;65076;52.362;6.588;2023-07-30T08:06:09;100940.06;;;21.02;64.55
76260;BME280;65076;52.362;6.588;2023-07-30T08:08:37;100938.66;;;20.78;65.82
76260;BME280;65076;52.362;6.588;2023-07-30T08:11:05;100937.88;;;20.66;66.32
76260;BME280;65076;52.362;6.588;2023-07-30T08:13:50;100943.56;;;21.35;63.96
76260;BME280;65076;52.362;6.588;2023-07-30T08:16:50;100933.78;;;20.91;65.48
76260;BME280;65076;52.362;6.588;2023-07-30T08:19:18;100940.13;;;20.82;65.47
76260;BME280;65076;52.362;6.588;2023-07-30T08:21:46;100945.88;;;21.39;63.70
76260;BME280;65076;52.362;6.588;2023-07-30T08:24:14;100941.50;;;21.27;64.08
76260;BME280;65076;52.362;6.588;2023-07-30T08:26:42;100936.66;;;21.88;62.37
76260;BME280;65076;52.362;6.588;2023-07-30T08:29:11;100928.47;;;22.08;61.54
76260;BME280;65076;52.362;6.588;2023-07-30T08:31:40;100924.84;;;22.07;61.15
76260;BME280;65076;52.362;6.588;2023-07-30T08:34:08;100918.13;;;21.90;61.20
76260;BME280;65076;52.362;6.588;2023-07-30T08:36:36;100921.31;;;21.86;61.65
76260;BME280;65076;52.362;6.588;2023-07-30T08:39:05;100922.63;;;21.82;61.85
76260;BME280;65076;52.362;6.588;2023-07-30T08:41:33;100933.22;;;22.34;58.58
76260;BME280;65076;52.362;6.588;2023-07-30T08:44:01;100933.81;;;22.28;58.61
76260;BME280;65076;52.362;6.588;2023-07-30T08:46:31;100931.91;;;21.90;60.37
76260;BME280;65076;52.362;6.588;2023-07-30T08:48:59;100925.94;;;21.66;60.56
76260;BME280;65076;52.362;6.588;2023-07-30T08:51:27;100927.78;;;21.46;61.72
76260;BME280;65076;52.362;6.588;2023-07-30T08:53:57;100935.91;;;21.08;63.01
76260;BME280;65076;52.362;6.588;2023-07-30T08:56:27;100926.31;;;21.42;60.79
76260;BME280;65076;52.362;6.588;2023-07-30T08:58:56;100937.28;;;21.92;59.86
76260;BME280;65076;52.362;6.588;2023-07-30T09:04:40;100928.63;;;20.97;61.05
76260;BME280;65076;52.362;6.588;2023-07-30T09:07:14;100928.75;;;21.36;61.09
76260;BME280;65076;52.362;6.588;2023-07-30T09:09:54;100936.47;;;21.51;61.16
76260;BME280;65076;52.362;6.588;2023-07-30T09:12:26;100930.97;;;21.11;61.65
76260;BME280;65076;52.362;6.588;2023-07-30T09:14:57;100927.97;;;21.14;61.10
76260;BME280;65076;52.362;6.588;2023-07-30T09:17:27;100950.31;;;21.21;60.74
76260;BME280;65076;52.362;6.588;2023-07-30T09:19:58;100934.69;;;21.31;59.44
76260;BME280;65076;52.362;6.588;2023-07-30T09:22:27;100929.97;;;21.52;59.58
76260;BME280;65076;52.362;6.588;2023-07-30T09:24:57;100934.16;;;21.47;59.65
76260;BME280;65076;52.362;6.588;2023-07-30T09:27:25;100938.13;;;21.73;58.85
76260;BME280;65076;52.362;6.588;2023-07-30T09:29:54;100930.47;;;21.18;59.94
76260;BME280;65076;52.362;6.588;2023-07-30T09:32:29;100933.00;;;21.40;59.91
76260;BME280;65076;52.362;6.588;2023-07-30T09:35:04;100947.09;;;20.86;61.60
76260;BME280;65076;52.362;6.588;2023-07-30T09:37:36;100939.09;;;21.13;60.10
76260;BME280;65076;52.362;6.588;2023-07-30T09:40:06;100951.75;;;20.95;60.12
76260;BME280;65076;52.362;6.588;2023-07-30T09:42:36;100948.97;;;21.16;60.91
76260;BME280;65076;52.362;6.588;2023-07-30T09:45:07;100949.59;;;20.68;63.94
76260;BME280;65076;52.362;6.588;2023-07-30T09:47:47;100957.38;;;20.42;66.71
76260;BME280;65076;52.362;6.588;2023-07-30T09:50:16;100958.94;;;20.35;65.83
76260;BME280;65076;52.362;6.588;2023-07-30T09:52:45;100956.56;;;20.30;65.46
76260;BME280;65076;52.362;6.588;2023-07-30T09:58:27;100955.53;;;20.11;66.01
76260;BME280;65076;52.362;6.588;2023-07-30T10:00:57;100956.25;;;19.92;67.34
76260;BME280;65076;52.362;6.588;2023-07-30T10:03:28;100969.53;;;20.08;66.74
76260;BME280;65076;52.362;6.588;2023-07-30T10:06:02;100965.19;;;20.26;65.26
76260;BME280;65076;52.362;6.588;2023-07-30T10:08:35;100953.50;;;20.96;63.68
76260;BME280;65076;52.362;6.588;2023-07-30T10:11:07;100956.63;;;20.82;63.42
76260;BME280;65076;52.362;6.588;2023-07-30T10:17:00;100949.66;;;21.38;60.15
76260;BME280;65076;52.362;6.588;2023-07-30T10:19:30;100953.25;;;22.36;58.12
76260;BME280;65076;52.362;6.588;2023-07-30T10:22:22;100948.38;;;22.67;57.63
76260;BME280;65076;52.362;6.588;2023-07-30T10:24:59;100952.34;;;23.66;54.51
76260;BME280;65076;52.362;6.588;2023-07-30T10:27:49;100964.25;;;24.29;53.56
76260;BME280;65076;52.362;6.588;2023-07-30T10:30:19;100969.69;;;24.03;54.39
76260;BME280;65076;52.362;6.588;2023-07-30T10:32:59;100952.34;;;23.48;53.79
76260;BME280;65076;52.362;6.588;2023-07-30T10:35:36;100947.97;;;23.73;49.71
76260;BME280;65076;52.362;6.588;2023-07-30T10:38:16;100957.53;;;22.77;53.65
76260;BME280;65076;52.362;6.588;2023-07-30T10:41:04;100965.59;;;22.23;55.65
76260;BME280;65076;52.362;6.588;2023-07-30T10:43:37;100963.56;;;22.15;56.21
76260;BME280;65076;52.362;6.588;2023-07-30T10:46:08;100973.00;;;22.03;56.41
76260;BME280;65076;52.362;6.588;2023-07-30T10:48:38;100961.03;;;22.79;54.71
76260;BME280;65076;52.362;6.588;2023-07-30T10:51:10;100966.00;;;21.99;56.67
76260;BME280;65076;52.362;6.588;2023-07-30T10:53:42;100978.19;;;22.25;56.85
76260;BME280;65076;52.362;6.588;2023-07-30T10:56:10;100980.22;;;22.71;54.24
76260;BME280;65076;52.362;6.588;2023-07-30T10:58:39;100972.63;;;22.83;54.59
76260;BME280;65076;52.362;6.588;2023-07-30T11:01:08;100970.78;;;23.11;52.75
76260;BME280;65076;52.362;6.588;2023-07-30T11:03:37;100966.66;;;22.97;52.31
76260;BME280;65076;52.362;6.588;2023-07-30T11:06:05;100968.22;;;23.00;51.25
76260;BME280;65076;52.362;6.588;2023-07-30T11:08:37;100970.31;;;22.78;53.17
76260;BME280;65076;52.362;6.588;2023-07-30T11:11:07;100975.75;;;23.07;50.83
76260;BME280;65076;52.362;6.588;2023-07-30T11:13:36;100978.22;;;24.10;48.31
76260;BME280;65076;52.362;6.588;2023-07-30T11:16:05;100964.38;;;23.92;47.48
76260;BME280;65076;52.362;6.588;2023-07-30T11:18:35;100967.44;;;23.72;48.31
76260;BME280;65076;52.362;6.588;2023-07-30T11:21:04;100965.38;;;23.56;47.03
76260;BME280;65076;52.362;6.588;2023-07-30T11:23:36;100967.53;;;23.25;47.93
76260;BME280;65076;52.362;6.588;2023-07-30T11:26:07;100974.13;;;22.49;50.20
76260;BME280;65076;52.362;6.588;2023-07-30T11:28:37;100990.94;;;22.65;51.04
76260;BME280;65076;52.362;6.588;2023-07-30T11:31:08;100990.31;;;23.91;51.15
76260;BME280;65076;52.362;6.588;2023-07-30T11:33:39;100995.53;;;24.12;51.01
76260;BME280;65076;52.362;6.588;2023-07-30T11:36:10;100995.66;;;24.38;50.53
76260;BME280;65076;52.362;6.588;2023-07-30T11:38:43;100992.03;;;23.75;52.41
76260;BME280;65076;52.362;6.588;2023-07-30T11:41:14;100987.06;;;23.51;52.92
76260;BME280;65076;52.362;6.588;2023-07-30T11:43:43;100997.38;;;24.21;53.09
76260;BME280;65076;52.362;6.588;2023-07-30T11:46:13;100994.72;;;23.84;55.44
76260;BME280;65076;52.362;6.588;2023-07-30T11:48:43;100995.03;;;22.42;62.52
76260;BME280;65076;52.362;6.588;2023-07-30T11:51:19;101003.28;;;21.44;64.94
76260;BME280;65076;52.362;6.588;2023-07-30T11:53:50;100991.38;;;21.34;63.77
76260;BME280;65076;52.362;6.588;2023-07-30T11:56:21;100995.19;;;22.11;63.24
76260;BME280;65076;52.362;6.588;2023-07-30T11:58:55;100993.75;;;23.11;62.46
76260;BME280;65076;52.362;6.588;2023-07-30T12:01:25;100988.03;;;22.57;60.41
76260;BME280;65076;52.362;6.588;2023-07-30T12:03:54;100982.84;;;23.10;60.58
76260;BME280;65076;52.362;6.588;2023-07-30T12:06:23;100983.03;;;24.61;55.99
76260;BME280;65076;52.362;6.588;2023-07-30T12:08:53;100994.28;;;24.42;54.00
76260;BME280;65076;52.362;6.588;2023-07-30T12:11:21;100990.50;;;25.12;50.52
76260;BME280;65076;52.362;6.588;2023-07-30T12:13:49;100997.69;;;24.54;46.67
76260;BME280;65076;52.362;6.588;2023-07-30T12:16:17;101000.88;;;24.23;46.81
76260;BME280;65076;52.362;6.588;2023-07-30T12:18:47;101003.75;;;23.59;49.58
76260;BME280;65076;52.362;6.588;2023-07-30T12:21:15;101008.88;;;23.07;50.69
76260;BME280;65076;52.362;6.588;2023-07-30T12:23:43;101004.38;;;23.43;50.10
76260;BME280;65076;52.362;6.588;2023-07-30T12:26:14;101001.53;;;23.90;46.52
76260;BME280;65076;52.362;6.588;2023-07-30T12:28:42;101006.56;;;23.49;49.15
76260;BME280;65076;52.362;6.588;2023-07-30T12:31:10;101004.88;;;24.64;47.69
76260;BME280;65076;52.362;6.588;2023-07-30T12:33:38;101012.81;;;24.85;46.55
76260;BME280;65076;52.362;6.588;2023-07-30T12:36:06;100999.38;;;25.50;45.14
76260;BME280;65076;52.362;6.588;2023-07-30T12:38:34;101005.13;;;24.53;44.07
76260;BME280;65076;52.362;6.588;2023-07-30T12:41:02;101009.09;;;24.94;44.72
76260;BME280;65076;52.362;6.588;2023-07-30T12:43:31;101015.59;;;24.85;45.65
76260;BME280;65076;52.362;6.588;2023-07-30T12:45:59;101011.84;;;25.20;43.01
76260;BME280;65076;52.362;6.588;2023-07-30T12:48:28;101015.88;;;24.21;44.37
76260;BME280;65076;52.362;6.588;2023-07-30T12:50:56;101016.63;;;23.95;45.81
76260;BME280;65076;52.362;6.588;2023-07-30T12:53:24;101013.94;;;24.03;45.77
76260;BME280;65076;52.362;6.588;2023-07-30T12:55:52;101008.25;;;23.60;46.12
76260;BME280;65076;52.362;6.588;2023-07-30T12:58:20;101015.81;;;24.03;45.75
76260;BME280;65076;52.362;6.588;2023-07-30T13:00:50;101011.06;;;25.02;46.09
76260;BME280;65076;52.362;6.588;2023-07-30T13:03:18;101005.00;;;25.32;42.83
76260;BME280;65076;52.362;6.588;2023-07-30T13:05:46;101005.78;;;25.84;42.39
76260;BME280;65076;52.362;6.588;2023-07-30T13:08:14;101005.34;;;25.63;44.14
76260;BME280;65076;52.362;6.588;2023-07-30T13:10:42;100995.41;;;25.94;42.85